Portstewart, United Kingdom
Current Conditions -  °F | °C
As of 9:20 PM on Sunday 23 Nov 2014 (Local Time) from EGAE Reporting Station
Scattered Clouds Scattered Clouds  
Wind Chill: 36°   Ceiling: Unl
Heat Index: 41°   Visibility: 6mi
Dew Point: 37°   Wind: 7mph
Humidity: 87%   Direction: 230°SW
Pressure: 30.09"   Gusts: NA
Location:  55.18°N, 6.71°W
Report Text: EGAE 232120Z 23006KT 9999 SCT048 05/03 Q1019
Loading
Personal Weather Stations






























Interactive Weather Map New forecast layout! Learn more

10-Day Weather Forecast

Advertisements
Track Severe Weather on mobile